createdAt,value
2023-03-20T00:01:19.936Z,21.26
2023-03-20T00:03:47.193Z,21.44
2023-03-20T00:06:25.202Z,21.20
2023-03-20T00:08:53.911Z,21.01
2023-03-20T00:11:27.169Z,21.09
2023-03-20T00:13:54.975Z,20.78
2023-03-20T00:16:23.674Z,20.62
2023-03-20T00:18:50.881Z,20.65
2023-03-20T00:21:19.386Z,20.46
2023-03-20T00:23:48.072Z,20.84
2023-03-20T00:26:18.545Z,20.39
2023-03-20T00:28:47.253Z,20.71
2023-03-20T00:31:22.531Z,20.57
2023-03-20T00:33:49.962Z,20.63
2023-03-20T00:36:18.142Z,20.24
2023-03-20T00:38:45.580Z,21.03
2023-03-20T00:41:22.094Z,21.20
2023-03-20T00:43:51.019Z,20.90
2023-03-20T00:46:18.688Z,21.18
2023-03-20T00:48:47.048Z,20.73
2023-03-20T00:51:14.531Z,21.05
2023-03-20T00:53:41.837Z,20.49
2023-03-20T00:56:26.300Z,20.70
2023-03-20T00:58:53.898Z,21.67
2023-03-20T01:01:21.165Z,20.90
2023-03-20T01:03:48.547Z,20.43
2023-03-20T01:06:16.072Z,20.90
2023-03-20T01:08:43.291Z,21.11
2023-03-20T01:11:11.781Z,20.93
2023-03-20T01:13:41.001Z,21.01
2023-03-20T01:16:18.340Z,20.52
2023-03-20T01:18:45.735Z,21.52
2023-03-20T01:21:13.164Z,21.46
2023-03-20T01:23:40.507Z,21.00
2023-03-20T01:26:30.992Z,21.02
2023-03-20T01:28:58.257Z,21.14
2023-03-20T01:31:25.764Z,20.61
2023-03-20T01:33:53.002Z,21.05
2023-03-20T01:36:21.850Z,20.29
2023-03-20T01:38:59.453Z,21.01
2023-03-20T01:41:27.954Z,20.42
2023-03-20T01:43:55.376Z,20.99
2023-03-20T01:46:28.781Z,21.04
2023-03-20T01:49:08.911Z,20.62
2023-03-20T01:51:38.099Z,20.53
2023-03-20T01:54:22.253Z,21.10
2023-03-20T01:57:20.286Z,20.39
2023-03-20T01:59:51.564Z,20.66
2023-03-20T02:02:25.712Z,20.80
2023-03-20T02:04:56.488Z,21.27
2023-03-20T02:07:24.085Z,20.99
2023-03-20T02:10:35.812Z,21.38
2023-03-20T02:13:15.544Z,21.30
2023-03-20T02:15:59.217Z,21.24
2023-03-20T02:18:42.134Z,21.74
2023-03-20T02:21:16.129Z,21.07
2023-03-20T02:23:52.743Z,21.32
2023-03-20T02:26:33.176Z,21.24
2023-03-20T02:29:01.397Z,21.56
2023-03-20T02:31:42.882Z,21.02
2023-03-20T02:34:29.924Z,21.02
2023-03-20T02:37:03.561Z,21.23
2023-03-20T02:39:49.208Z,20.92
2023-03-20T02:42:16.529Z,21.47
2023-03-20T02:44:43.710Z,21.63
2023-03-20T02:47:19.697Z,21.11
2023-03-20T02:49:56.296Z,21.06
2023-03-20T02:52:41.611Z,21.35
2023-03-20T02:55:18.218Z,21.73
2023-03-20T02:57:48.873Z,21.01
2023-03-20T03:00:33.795Z,21.29
2023-03-20T03:03:01.853Z,21.35
2023-03-20T03:05:49.528Z,20.87
2023-03-20T03:08:18.923Z,21.02
2023-03-20T03:10:50.298Z,20.71
2023-03-20T03:13:20.289Z,21.07
2023-03-20T03:15:50.697Z,20.89
2023-03-20T03:18:23.727Z,21.15
2023-03-20T03:20:54.681Z,20.80
2023-03-20T03:23:34.519Z,21.02
2023-03-20T03:26:03.595Z,20.52
2023-03-20T03:28:39.226Z,21.08
2023-03-20T03:31:08.582Z,20.76
2023-03-20T03:33:38.625Z,20.89
2023-03-20T03:36:09.032Z,20.97
2023-03-20T03:38:36.320Z,20.90
2023-03-20T03:41:03.531Z,20.70
2023-03-20T03:43:33.907Z,20.95
2023-03-20T03:46:10.718Z,21.02
2023-03-20T03:48:44.631Z,20.74
2023-03-20T03:51:14.950Z,21.33
2023-03-20T03:54:17.708Z,21.30
2023-03-20T03:56:55.103Z,21.16
2023-03-20T03:59:29.748Z,21.26
2023-03-20T04:01:59.046Z,20.98
2023-03-20T04:04:27.551Z,21.26
2023-03-20T04:06:55.213Z,21.13
2023-03-20T04:09:22.728Z,20.88
2023-03-20T04:11:53.554Z,21.10
2023-03-20T04:14:20.908Z,20.62
2023-03-20T04:16:48.358Z,20.80
2023-03-20T04:19:15.580Z,20.97
2023-03-20T04:21:46.132Z,20.80
2023-03-20T04:24:13.454Z,21.22
2023-03-20T04:26:40.769Z,20.76
2023-03-20T04:29:08.355Z,20.99
2023-03-20T04:32:03.724Z,20.67
2023-03-20T04:35:00.609Z,20.82
2023-03-20T04:37:46.510Z,21.30
2023-03-20T04:40:14.446Z,21.18
2023-03-20T04:42:43.322Z,21.05
2023-03-20T04:45:11.637Z,20.74
2023-03-20T04:47:40.253Z,21.14
2023-03-20T04:50:08.079Z,20.52
2023-03-20T04:52:36.383Z,20.71
2023-03-20T04:55:03.720Z,20.68
2023-03-20T04:57:32.309Z,21.14
2023-03-20T04:59:59.627Z,21.38
2023-03-20T05:02:28.026Z,20.89
2023-03-20T05:04:55.284Z,20.82
2023-03-20T05:07:22.659Z,21.07
2023-03-20T05:10:16.220Z,20.83
2023-03-20T05:12:51.263Z,21.22
2023-03-20T05:15:37.337Z,21.12
2023-03-20T05:18:33.717Z,21.16
2023-03-20T05:21:16.258Z,20.90
2023-03-20T05:24:03.773Z,20.88
2023-03-20T05:26:56.922Z,21.06
2023-03-20T05:29:47.323Z,21.57
2023-03-20T05:32:50.881Z,21.20
2023-03-20T05:35:27.048Z,21.10
2023-03-20T05:38:04.157Z,21.21
2023-03-20T05:40:43.729Z,21.57
2023-03-20T05:43:32.251Z,21.96
2023-03-20T05:46:31.656Z,22.07
2023-03-20T05:49:14.443Z,21.64
2023-03-20T05:52:08.282Z,22.76
2023-03-20T05:54:41.431Z,21.79
2023-03-20T05:57:41.124Z,21.59
2023-03-20T06:00:28.608Z,21.48
2023-03-20T06:03:14.485Z,22.44
2023-03-20T06:06:04.755Z,23.04
2023-03-20T06:08:32.339Z,22.45
2023-03-20T06:11:00.809Z,21.86
2023-03-20T06:13:28.732Z,23.81
2023-03-20T06:15:56.713Z,22.80
2023-03-20T06:18:23.999Z,24.46
2023-03-20T06:20:55.140Z,22.65
2023-03-20T06:23:23.112Z,21.97
2023-03-20T06:25:51.577Z,22.21
2023-03-20T06:28:20.802Z,21.78
2023-03-20T06:30:52.077Z,24.09
2023-03-20T06:33:21.128Z,22.92
2023-03-20T06:36:00.106Z,23.02
2023-03-20T06:38:30.323Z,22.97
2023-03-20T06:40:59.103Z,22.05
2023-03-20T06:43:26.387Z,22.08
2023-03-20T06:45:54.101Z,22.21
2023-03-20T06:48:23.834Z,21.81
2023-03-20T06:50:53.296Z,22.11
2023-03-20T06:53:24.292Z,21.99
2023-03-20T06:55:57.900Z,22.09
2023-03-20T06:58:26.154Z,21.91
2023-03-20T07:00:54.978Z,22.29
2023-03-20T07:03:22.914Z,23.82
2023-03-20T07:05:51.366Z,23.81
2023-03-20T07:08:20.214Z,22.75
2023-03-20T07:10:49.559Z,23.03
2023-03-20T07:13:16.880Z,21.91
2023-03-20T07:16:01.119Z,22.34
2023-03-20T07:18:33.299Z,23.02
2023-03-20T07:21:03.339Z,23.40
2023-03-20T07:23:32.028Z,24.94
2023-03-20T07:25:59.753Z,24.57
2023-03-20T07:28:27.358Z,25.06
2023-03-20T07:31:07.708Z,25.44
2023-03-20T07:33:35.207Z,24.51
2023-03-20T07:36:02.620Z,24.74
2023-03-20T07:38:29.967Z,24.16
2023-03-20T07:41:08.877Z,24.83
2023-03-20T07:43:44.635Z,24.50
2023-03-20T07:46:18.175Z,25.52
2023-03-20T07:48:45.565Z,24.79
2023-03-20T07:51:12.783Z,24.00
2023-03-20T07:53:40.119Z,25.65
2023-03-20T07:56:07.623Z,25.14
2023-03-20T07:58:34.892Z,25.51
2023-03-20T08:01:03.920Z,24.06
2023-03-20T08:03:32.000Z,23.98
2023-03-20T08:05:59.416Z,24.70
2023-03-20T08:08:26.867Z,24.86
2023-03-20T08:10:54.107Z,25.12
2023-03-20T08:13:21.296Z,24.81
2023-03-20T08:15:48.679Z,24.93
2023-03-20T08:18:15.892Z,24.48
2023-03-20T08:20:43.199Z,23.73
2023-03-20T08:23:10.409Z,23.59
2023-03-20T08:25:38.144Z,24.18
2023-03-20T08:28:05.749Z,24.30
2023-03-20T08:30:33.001Z,23.35
2023-03-20T08:33:00.387Z,23.07
2023-03-20T08:35:45.572Z,22.88
2023-03-20T08:38:13.864Z,23.31
2023-03-20T08:40:42.205Z,23.16
2023-03-20T08:43:09.899Z,23.78
2023-03-20T08:45:37.484Z,24.39
2023-03-20T08:48:05.128Z,24.17
2023-03-20T08:50:33.196Z,23.47
2023-03-20T08:53:01.405Z,24.19
2023-03-20T08:55:28.654Z,23.28
2023-03-20T08:57:57.626Z,23.77
2023-03-20T09:00:25.300Z,24.46
2023-03-20T09:02:52.578Z,24.12
2023-03-20T09:05:19.870Z,23.72
2023-03-20T09:07:47.242Z,24.64
2023-03-20T09:10:14.506Z,23.68
2023-03-20T09:12:42.010Z,23.86
2023-03-20T09:15:09.558Z,24.49
2023-03-20T09:17:36.913Z,25.10
2023-03-20T09:20:04.723Z,24.80
2023-03-20T09:22:32.746Z,23.78
2023-03-20T09:25:00.198Z,25.00
2023-03-20T09:27:27.436Z,23.77
2023-03-20T09:29:54.700Z,24.30
2023-03-20T09:32:22.147Z,25.70
2023-03-20T09:34:49.543Z,24.14
2023-03-20T09:37:16.804Z,23.90
2023-03-20T09:39:44.240Z,25.72
2023-03-20T09:42:24.111Z,25.64
2023-03-20T09:45:14.046Z,25.95
2023-03-20T09:47:47.556Z,25.10
2023-03-20T09:50:24.817Z,26.22
2023-03-20T09:52:58.512Z,26.16
2023-03-20T09:55:40.022Z,26.66
2023-03-20T09:58:10.496Z,26.20
2023-03-20T10:00:38.392Z,26.42
2023-03-20T10:03:07.104Z,26.02
2023-03-20T10:05:45.523Z,26.30
2023-03-20T10:08:17.082Z,26.62
2023-03-20T10:11:13.396Z,26.16
2023-03-20T10:13:54.311Z,26.47
2023-03-20T10:16:30.939Z,26.18
2023-03-20T10:19:04.552Z,26.42
2023-03-20T10:21:45.645Z,26.31
2023-03-20T10:24:19.898Z,24.74
2023-03-20T10:26:49.275Z,25.61
2023-03-20T10:29:35.586Z,26.38
2023-03-20T10:32:26.761Z,26.34
2023-03-20T10:34:58.324Z,25.55
2023-03-20T10:37:44.176Z,24.90
2023-03-20T10:40:27.095Z,25.83
2023-03-20T10:42:56.762Z,24.77
2023-03-20T10:45:33.013Z,24.62
2023-03-20T10:48:02.853Z,24.45
2023-03-20T10:50:34.129Z,24.46
2023-03-20T10:53:02.883Z,26.32
2023-03-20T10:55:37.982Z,26.52
2023-03-20T10:58:11.413Z,26.37
2023-03-20T11:00:39.001Z,26.62
2023-03-20T11:03:07.559Z,26.96
2023-03-20T11:05:37.228Z,26.73
2023-03-20T11:08:07.788Z,26.80
2023-03-20T11:10:36.509Z,27.00
2023-03-20T11:13:24.405Z,25.89
2023-03-20T11:15:52.782Z,26.87
2023-03-20T11:18:20.631Z,25.73
2023-03-20T11:20:57.913Z,26.54
2023-03-20T11:23:27.235Z,26.96
2023-03-20T11:25:57.583Z,26.66
2023-03-20T11:28:38.376Z,26.67
2023-03-20T11:31:06.219Z,27.25
2023-03-20T11:33:41.017Z,27.33
2023-03-20T11:36:13.221Z,26.72
2023-03-20T11:38:45.216Z,27.52
2023-03-20T11:41:23.756Z,27.59
2023-03-20T11:43:51.166Z,27.39
2023-03-20T11:46:19.993Z,26.48
2023-03-20T11:48:47.704Z,27.74
2023-03-20T11:51:20.350Z,28.07
2023-03-20T11:53:48.239Z,28.01
2023-03-20T11:56:21.617Z,27.93
2023-03-20T11:58:57.321Z,27.83
2023-03-20T12:01:25.293Z,26.86
2023-03-20T12:03:59.107Z,27.71
2023-03-20T12:06:27.536Z,27.25
2023-03-20T12:09:01.198Z,27.05
2023-03-20T12:11:47.597Z,27.23
2023-03-20T12:14:24.126Z,27.38
2023-03-20T12:16:54.251Z,27.66
2023-03-20T12:19:24.549Z,27.81
2023-03-20T12:21:56.336Z,27.59
2023-03-20T12:24:26.518Z,27.82
2023-03-20T12:27:17.544Z,27.41
2023-03-20T12:29:44.830Z,27.01
2023-03-20T12:32:18.185Z,27.49
2023-03-20T12:34:48.205Z,27.17
2023-03-20T12:37:18.588Z,27.22
2023-03-20T12:39:49.018Z,27.22
2023-03-20T12:42:19.397Z,27.58
2023-03-20T12:44:49.656Z,27.71
2023-03-20T12:47:37.390Z,27.70
2023-03-20T12:50:12.106Z,26.56
2023-03-20T12:52:54.739Z,26.93
2023-03-20T12:55:22.253Z,27.30
2023-03-20T12:57:56.895Z,27.41
2023-03-20T13:00:24.428Z,27.81
2023-03-20T13:02:57.585Z,26.84
2023-03-20T13:08:37.668Z,26.79
2023-03-20T13:11:16.304Z,26.38
2023-03-20T13:13:53.019Z,26.54
2023-03-20T13:16:30.154Z,26.70
2023-03-20T13:19:00.524Z,27.55
2023-03-20T13:21:46.029Z,28.05
2023-03-20T13:24:25.883Z,27.40
2023-03-20T13:27:08.084Z,28.16
2023-03-20T13:29:42.525Z,26.91
2023-03-20T13:32:22.296Z,27.74
2023-03-20T13:34:51.356Z,27.28
2023-03-20T13:37:28.957Z,27.27
2023-03-20T13:40:06.412Z,27.03
2023-03-20T13:42:39.083Z,26.17
2023-03-20T13:45:28.923Z,27.76
2023-03-20T13:47:58.873Z,28.98
2023-03-20T13:50:44.735Z,29.11
2023-03-20T13:53:30.965Z,28.90
2023-03-20T13:56:01.300Z,28.74
2023-03-20T13:58:37.819Z,29.13
2023-03-20T14:01:05.400Z,29.04
2023-03-20T14:03:35.633Z,29.93
2023-03-20T14:06:53.258Z,29.39
2023-03-20T14:09:44.197Z,29.36
2023-03-20T14:12:12.848Z,27.93
2023-03-20T14:14:42.244Z,30.24
2023-03-20T14:17:10.151Z,29.63
2023-03-20T14:19:38.982Z,30.44
2023-03-20T14:22:07.141Z,30.15
2023-03-20T14:24:36.699Z,30.35
2023-03-20T14:27:06.159Z,30.93
2023-03-20T14:29:35.321Z,30.86
2023-03-20T14:32:04.389Z,29.05
2023-03-20T14:34:45.676Z,29.84
2023-03-20T14:37:25.377Z,28.01
2023-03-20T14:39:58.617Z,27.34
2023-03-20T14:42:40.881Z,29.25
2023-03-20T14:45:14.477Z,29.68
2023-03-20T14:47:44.849Z,29.05
2023-03-20T14:50:20.740Z,31.48
2023-03-20T14:52:51.809Z,31.53
2023-03-20T14:55:22.711Z,30.57
2023-03-20T14:57:56.569Z,29.63
2023-03-20T15:00:30.337Z,31.00
2023-03-20T15:03:17.854Z,32.32
2023-03-20T15:05:45.706Z,31.99
2023-03-20T15:08:31.222Z,33.19
2023-03-20T15:11:00.127Z,34.01
2023-03-20T15:13:28.495Z,33.68
2023-03-20T15:15:57.365Z,33.34
2023-03-20T15:18:26.962Z,34.14
2023-03-20T15:20:56.507Z,31.95
2023-03-20T15:23:27.614Z,33.07
2023-03-20T15:25:55.336Z,33.99
2023-03-20T15:28:24.031Z,33.51
2023-03-20T15:30:58.002Z,33.82
2023-03-20T15:33:46.205Z,34.17
2023-03-20T15:36:17.775Z,35.50
2023-03-20T15:38:45.693Z,32.36
2023-03-20T15:41:26.759Z,34.42
2023-03-20T15:43:54.243Z,34.87
2023-03-20T15:46:26.378Z,34.44
2023-03-20T15:48:53.730Z,34.78
2023-03-20T15:51:23.200Z,33.36
2023-03-20T15:53:50.590Z,34.59
2023-03-20T15:56:19.834Z,35.43
2023-03-20T15:58:49.345Z,33.29
2023-03-20T16:01:18.530Z,34.42
2023-03-20T16:03:46.343Z,32.19
2023-03-20T16:06:16.830Z,31.39
2023-03-20T16:08:46.432Z,33.76
2023-03-20T16:11:15.797Z,32.10
2023-03-20T16:13:47.728Z,31.73
2023-03-20T16:16:17.545Z,35.10
2023-03-20T16:18:48.302Z,35.89
2023-03-20T16:21:20.176Z,35.05
2023-03-20T16:23:50.085Z,31.90
2023-03-20T16:26:18.553Z,31.62
2023-03-20T16:28:46.754Z,32.16
2023-03-20T16:31:16.678Z,33.81
2023-03-20T16:33:44.647Z,35.76
2023-03-20T16:36:23.198Z,34.97
2023-03-20T16:38:59.798Z,35.49
2023-03-20T16:41:32.061Z,35.20
2023-03-20T16:43:59.929Z,36.20
2023-03-20T16:46:28.033Z,36.21
2023-03-20T16:48:59.454Z,36.80
2023-03-20T16:51:27.988Z,36.91
2023-03-20T16:53:56.541Z,36.14
2023-03-20T16:56:34.025Z,36.24
2023-03-20T16:59:08.857Z,34.35
2023-03-20T17:01:36.235Z,35.30
2023-03-20T17:04:18.845Z,33.06
2023-03-20T17:06:49.059Z,36.33
2023-03-20T17:09:19.035Z,37.11
2023-03-20T17:11:48.598Z,33.49
2023-03-20T17:14:16.453Z,34.49
2023-03-20T17:16:44.413Z,33.69
2023-03-20T17:19:16.798Z,35.14
2023-03-20T17:21:44.575Z,36.39
2023-03-20T17:24:12.598Z,33.01
2023-03-20T17:26:41.689Z,33.03
2023-03-20T17:29:10.903Z,32.24
2023-03-20T17:31:38.537Z,32.90
2023-03-20T17:34:06.419Z,33.47
2023-03-20T17:36:35.605Z,31.10
2023-03-20T17:39:03.084Z,30.66
2023-03-20T17:41:30.472Z,30.33
2023-03-20T17:43:57.692Z,33.15
2023-03-20T17:46:27.698Z,30.81
2023-03-20T17:49:06.342Z,35.71
2023-03-20T17:51:34.953Z,32.75
2023-03-20T17:54:02.220Z,32.57
2023-03-20T17:56:33.037Z,33.63
2023-03-20T17:59:01.241Z,34.37
2023-03-20T18:01:31.116Z,30.85
2023-03-20T18:03:59.833Z,30.91
2023-03-20T18:06:31.574Z,29.44
2023-03-20T18:08:59.653Z,29.43
2023-03-20T18:11:27.221Z,29.26
2023-03-20T18:13:54.811Z,30.03
2023-03-20T18:16:23.465Z,29.53
2023-03-20T18:18:51.406Z,31.49
2023-03-20T18:21:21.467Z,30.47
2023-03-20T18:23:48.918Z,29.71
2023-03-20T18:26:23.890Z,29.13
2023-03-20T18:28:52.054Z,28.85
2023-03-20T18:31:19.770Z,29.96
2023-03-20T18:33:48.756Z,32.24
2023-03-20T18:36:17.076Z,33.51
2023-03-20T18:38:47.779Z,29.60
2023-03-20T18:41:15.298Z,30.79
2023-03-20T18:43:42.883Z,29.75
2023-03-20T18:46:20.319Z,32.81
2023-03-20T18:48:47.987Z,33.69
2023-03-20T18:51:15.987Z,30.73
2023-03-20T18:53:43.366Z,29.64
2023-03-20T18:56:15.408Z,29.62
2023-03-20T18:58:42.769Z,29.16
2023-03-20T19:01:12.990Z,29.52
2023-03-20T19:03:41.826Z,29.66
2023-03-20T19:06:16.827Z,29.04
2023-03-20T19:08:44.929Z,31.74
2023-03-20T19:11:16.406Z,32.28
2023-03-20T19:13:49.960Z,32.36
2023-03-20T19:16:20.122Z,32.37
2023-03-20T19:18:50.215Z,33.60
2023-03-20T19:21:17.501Z,31.29
2023-03-20T19:23:44.754Z,30.19
2023-03-20T19:26:15.169Z,30.51
2023-03-20T19:28:44.118Z,29.35
2023-03-20T19:31:11.857Z,30.23
2023-03-20T19:33:39.807Z,29.64
2023-03-20T19:36:08.096Z,31.66
2023-03-20T19:38:35.646Z,29.18
2023-03-20T19:41:04.096Z,31.30
2023-03-20T19:43:32.223Z,29.60
2023-03-20T19:46:00.373Z,29.29
2023-03-20T19:48:46.044Z,32.23
2023-03-20T19:51:18.079Z,29.64
2023-03-20T19:53:46.254Z,30.82
2023-03-20T19:56:14.037Z,29.91
2023-03-20T19:58:41.441Z,29.54
2023-03-20T20:01:15.185Z,29.40
2023-03-20T20:03:43.139Z,29.16
2023-03-20T20:06:10.460Z,29.18
2023-03-20T20:08:48.063Z,29.19
2023-03-20T20:11:16.873Z,33.28
2023-03-20T20:16:32.210Z,29.23
2023-03-20T20:18:59.480Z,28.99
2023-03-20T20:24:16.516Z,32.47
2023-03-20T20:26:53.846Z,30.49
2023-03-20T20:29:22.533Z,30.15
2023-03-20T20:31:49.916Z,32.21
2023-03-20T20:39:52.070Z,31.02
2023-03-20T20:42:20.679Z,30.40
2023-03-20T20:44:48.004Z,30.13
2023-03-20T20:47:15.576Z,29.68
2023-03-20T20:49:42.890Z,30.37
2023-03-20T20:52:10.125Z,33.48
2023-03-20T20:54:37.710Z,37.59
2023-03-20T20:57:05.025Z,32.32
2023-03-20T20:59:32.389Z,35.35
2023-03-20T21:01:59.728Z,30.80
2023-03-20T21:04:27.392Z,36.51
2023-03-20T21:07:11.417Z,34.15
2023-03-20T21:09:39.586Z,33.77
2023-03-20T21:12:08.272Z,32.73
2023-03-20T21:14:35.924Z,31.87
2023-03-20T21:17:03.678Z,32.95
2023-03-20T21:19:33.236Z,30.54
2023-03-20T21:22:00.755Z,33.05
2023-03-20T21:24:33.462Z,31.27
2023-03-20T21:27:02.350Z,32.13
2023-03-20T21:29:29.672Z,31.27
2023-03-20T21:31:59.528Z,35.15
2023-03-20T21:34:27.107Z,31.64
2023-03-20T21:36:54.373Z,36.10
2023-03-20T21:39:21.679Z,32.92
2023-03-20T21:41:49.229Z,32.30
2023-03-20T21:44:24.541Z,32.70
2023-03-20T21:58:56.332Z,34.27
2023-03-20T22:04:51.103Z,32.30
2023-03-20T22:07:23.988Z,32.75
2023-03-20T22:18:25.125Z,38.19
2023-03-20T22:21:30.032Z,49.25
2023-03-20T22:24:05.595Z,39.85
2023-03-20T22:29:37.867Z,38.92
2023-03-20T22:32:38.585Z,40.13
2023-03-20T22:38:02.466Z,37.94
2023-03-20T22:40:59.382Z,37.68
2023-03-20T22:44:07.871Z,33.77
2023-03-20T22:46:01.725Z,36.57
2023-03-20T22:48:33.099Z,41.44
2023-03-20T22:51:00.325Z,37.41
2023-03-20T22:53:27.636Z,33.92
2023-03-20T22:55:54.885Z,36.25
2023-03-20T22:58:22.536Z,33.02
2023-03-20T23:00:49.930Z,32.94
2023-03-20T23:03:33.366Z,33.19
2023-03-20T23:06:08.892Z,32.70
2023-03-20T23:08:48.138Z,32.69
2023-03-20T23:11:18.696Z,37.49
2023-03-20T23:13:46.943Z,33.50
2023-03-20T23:16:14.242Z,33.71
2023-03-20T23:18:41.601Z,40.37
2023-03-20T23:21:09.303Z,35.44
2023-03-20T23:23:37.064Z,49.43
2023-03-20T23:26:09.021Z,52.71
2023-03-20T23:28:36.989Z,52.48
2023-03-20T23:31:10.461Z,44.92
2023-03-20T23:33:39.292Z,40.98
2023-03-20T23:36:21.808Z,38.50
2023-03-20T23:38:55.702Z,41.74
2023-03-20T23:41:49.323Z,39.17
2023-03-20T23:44:10.444Z,39.63
2023-03-20T23:46:37.661Z,40.07
2023-03-20T23:49:05.984Z,42.51
2023-03-20T23:51:33.328Z,44.22
2023-03-20T23:54:00.637Z,44.16
2023-03-20T23:56:27.874Z,45.59
2023-03-20T23:59:03.226Z,40.24
